TimeEST,TemperatureF,Dew PointF,Humidity,Sea Level PressureIn,VisibilityMPH,Wind Direction,Wind SpeedMPH,Gust SpeedMPH,PrecipitationIn,Events,Conditions,WindDirDegrees,DateUTC
12:53 AM,68.0,62.1,81,30.25,10.0,East,5.8,-,N/A,,Clear,100,2013-01-29 05:53:00
1:53 AM,66.9,62.1,84,30.23,10.0,ESE,5.8,-,N/A,,Clear,120,2013-01-29 06:53:00
2:53 AM,66.0,62.1,87,30.22,9.0,ESE,4.6,-,N/A,,Clear,110,2013-01-29 07:53:00
3:53 AM,64.9,62.1,90,30.22,8.0,Calm,Calm,-,N/A,,Clear,0,2013-01-29 08:53:00
4:53 AM,64.0,61.0,90,30.22,7.0,ENE,3.5,-,N/A,,Clear,70,2013-01-29 09:53:00
5:49 AM,64.4,60.8,88,30.23,0.2,ENE,3.5,-,N/A,,Scattered Clouds,70,2013-01-29 10:49:00
5:53 AM,64.0,62.1,93,30.23,0.2,NE,3.5,-,N/A,,Scattered Clouds,50,2013-01-29 10:53:00
5:58 AM,64.4,60.8,88,30.23,0.2,ENE,4.6,-,N/A,Fog,Fog,60,2013-01-29 10:58:00
6:53 AM,63.0,62.1,97,30.23,0.2,East,3.5,-,N/A,Fog,Fog,90,2013-01-29 11:53:00
7:53 AM,64.9,64.0,97,30.24,1.0,East,4.6,-,N/A,,Overcast,100,2013-01-29 12:53:00
8:53 AM,66.9,64.9,93,30.25,2.0,ESE,8.1,-,N/A,,Mostly Cloudy,110,2013-01-29 13:53:00
9:24 AM,69.8,66.2,88,30.24,3.0,ESE,9.2,-,N/A,,Partly Cloudy,120,2013-01-29 14:24:00
9:29 AM,69.8,64.4,83,30.24,6.0,East,6.9,-,N/A,,Haze,100,2013-01-29 14:29:00
9:53 AM,71.1,64.9,81,30.24,7.0,ESE,4.6,-,N/A,,Partly Cloudy,120,2013-01-29 14:53:00
10:53 AM,73.9,64.9,73,30.22,10.0,Variable,6.9,17.3,N/A,,Partly Cloudy,0,2013-01-29 15:53:00
11:53 AM,77.0,64.0,64,30.20,10.0,SE,9.2,18.4,N/A,,Partly Cloudy,130,2013-01-29 16:53:00
12:53 PM,80.1,62.1,54,30.17,10.0,SE,9.2,-,N/A,,Partly Cloudy,130,2013-01-29 17:53:00
1:53 PM,82.0,60.1,47,30.14,10.0,SE,9.2,-,N/A,,Partly Cloudy,130,2013-01-29 18:53:00
2:53 PM,79.0,62.1,56,30.12,10.0,SW,4.6,-,N/A,,Scattered Clouds,230,2013-01-29 19:53:00
3:53 PM,79.0,64.0,60,30.11,10.0,South,9.2,-,N/A,,Partly Cloudy,190,2013-01-29 20:53:00
4:53 PM,75.9,64.0,67,30.12,10.0,South,8.1,-,N/A,,Mostly Cloudy,180,2013-01-29 21:53:00
5:53 PM,73.9,63.0,68,30.11,10.0,SSW,5.8,-,N/A,,Overcast,200,2013-01-29 22:53:00
6:53 PM,73.0,64.0,73,30.12,10.0,SSW,3.5,-,N/A,,Overcast,200,2013-01-29 23:53:00
7:53 PM,72.0,63.0,73,30.12,10.0,South,8.1,-,N/A,,Overcast,180,2013-01-30 00:53:00
8:53 PM,72.0,64.0,76,30.12,10.0,South,5.8,-,N/A,,Mostly Cloudy,170,2013-01-30 01:53:00
9:53 PM,73.0,63.0,71,30.11,10.0,Variable,4.6,-,N/A,,Mostly Cloudy,0,2013-01-30 02:53:00
10:53 PM,73.0,64.9,76,30.12,10.0,SE,3.5,-,N/A,,Overcast,140,2013-01-30 03:53:00
11:53 PM,72.0,64.9,78,30.12,10.0,SSE,5.8,-,N/A,,Mostly Cloudy,150,2013-01-30 04:53:00